Time;durP1;ratioP1;P1;durP2;ratioP2;P2;SDS_P1;SDS_P2;PMS_P1;PMS_P2;Temp;Humidity;BMP_temperature;BMP_pressure;BME280_temperature;BME280_humidity;BME280_pressure;Samples;Min_cycle;Max_cycle;Signal;HPM_P1;HPM_P2
2023/07/15 00:02:11;;;;;;;8.05;3.03;;;;;;;;;;5034146;28;20184;-81
2023/07/15 00:04:37;;;;;;;4.97;3.23;;;;;;;;;;5053445;28;20192;-81
2023/07/15 00:07:05;;;;;;;5.77;3.30;;;;;;;;;;5053404;28;20208;-81
2023/07/15 00:09:34;;;;;;;6.37;2.97;;;;;;;;;;5036232;28;20187;-81
2023/07/15 00:12:02;;;;;;;8.37;3.27;;;;;;;;;;5053145;28;20188;-81
2023/07/15 00:14:28;;;;;;;7.33;2.90;;;;;;;;;;5052796;28;20212;-81
2023/07/15 00:16:55;;;;;;;4.87;2.80;;;;;;;;;;5034303;28;20189;-81
2023/07/15 00:19:23;;;;;;;5.10;2.90;;;;;;;;;;5046051;28;20176;-81
2023/07/15 00:21:50;;;;;;;3.85;2.72;;;;;;;;;;5036806;28;20192;-81
2023/07/15 00:24:16;;;;;;;4.90;3.00;;;;;;;;;;5051281;28;20194;-82
2023/07/15 00:26:42;;;;;;;7.37;3.20;;;;;;;;;;5037115;28;20184;-82
2023/07/15 00:29:08;;;;;;;4.40;2.97;;;;;;;;;;5052779;28;20203;-81
2023/07/15 00:31:35;;;;;;;5.40;3.10;;;;;;;;;;5052995;28;20228;-81
2023/07/15 00:34:01;;;;;;;7.37;3.03;;;;;;;;;;5052968;28;20215;-81
2023/07/15 00:36:28;;;;;;;6.13;3.03;;;;;;;;;;5036565;28;20192;-81
2023/07/15 00:38:54;;;;;;;7.93;3.20;;;;;;;;;;5051684;28;20202;-81
2023/07/15 00:41:21;;;;;;;6.30;3.13;;;;;;;;;;5052105;28;20183;-87
2023/07/15 00:43:54;;;;;;;7.07;2.90;;;;;;;;;;5052334;28;20251;-86
2023/07/15 00:46:26;;;;;;;4.53;2.50;;;;;;;;;;5053295;28;20179;-86
2023/07/15 00:49:06;;;;;;;4.47;2.80;;;;;;;;;;5053161;28;20183;-87
2023/07/15 00:51:36;;;;;;;5.37;2.77;;;;;;;;;;5053185;28;20184;-86
2023/07/15 00:54:04;;;;;;;3.37;2.57;;;;;;;;;;5042918;28;20236;-86
2023/07/15 00:56:31;;;;;;;6.73;2.70;;;;;;;;;;5044449;28;20287;-86
2023/07/15 00:58:57;;;;;;;3.97;3.07;;;;;;;;;;5034731;28;20185;-86
2023/07/15 01:01:23;;;;;;;5.77;2.73;;;;;;;;;;5046572;28;20223;-87
2023/07/15 01:03:49;;;;;;;6.00;2.93;;;;;;;;;;5041446;28;20239;-86
2023/07/15 01:06:15;;;;;;;6.47;2.63;;;;;;;;;;5052373;28;20275;-87
2023/07/15 01:08:41;;;;;;;4.87;2.53;;;;;;;;;;5036819;28;20331;-87
2023/07/15 01:11:09;;;;;;;5.83;2.80;;;;;;;;;;5024769;28;20192;-87
2023/07/15 01:13:35;;;;;;;3.10;2.40;;;;;;;;;;5032819;28;20216;-87
2023/07/15 01:16:01;;;;;;;5.20;2.70;;;;;;;;;;5029597;28;20191;-85
2023/07/15 01:18:28;;;;;;;3.63;2.63;;;;;;;;;;5044291;28;20187;-85
2023/07/15 01:20:58;;;;;;;10.17;2.60;;;;;;;;;;5049721;28;20210;-81
2023/07/15 01:23:24;;;;;;;6.27;2.40;;;;;;;;;;5037215;28;20188;-81
2023/07/15 01:25:50;;;;;;;6.20;2.70;;;;;;;;;;5036014;28;20195;-81
2023/07/15 01:28:16;;;;;;;7.77;2.70;;;;;;;;;;5035057;28;20219;-81
2023/07/15 01:30:42;;;;;;;6.00;2.80;;;;;;;;;;5031190;28;20223;-81
2023/07/15 01:33:15;;;;;;;3.40;2.60;;;;;;;;;;5037040;28;20191;-81
2023/07/15 01:35:41;;;;;;;5.13;2.60;;;;;;;;;;5035477;28;20190;-81
2023/07/15 01:38:07;;;;;;;4.97;2.70;;;;;;;;;;5027319;28;20211;-81
2023/07/15 01:40:35;;;;;;;6.03;2.73;;;;;;;;;;5042582;28;20195;-81
2023/07/15 01:43:04;;;;;;;7.68;2.63;;;;;;;;;;5051624;28;20247;-81
2023/07/15 01:45:30;;;;;;;4.30;2.60;;;;;;;;;;5055814;28;20183;-81
2023/07/15 01:47:56;;;;;;;4.65;2.53;;;;;;;;;;5042206;28;20254;-81
2023/07/15 01:50:22;;;;;;;6.03;2.67;;;;;;;;;;5059983;28;20185;-81
2023/07/15 01:52:48;;;;;;;5.35;2.55;;;;;;;;;;5060210;28;20179;-81
2023/07/15 01:55:15;;;;;;;5.82;2.65;;;;;;;;;;5060012;28;20241;-81
2023/07/15 01:57:41;;;;;;;5.80;2.50;;;;;;;;;;5042928;28;20172;-81
2023/07/15 02:00:11;;;;;;;5.38;2.60;;;;;;;;;;5058730;28;20187;-81
2023/07/15 02:02:37;;;;;;;7.87;2.77;;;;;;;;;;5039742;28;20188;-81
2023/07/15 02:05:03;;;;;;;6.87;2.57;;;;;;;;;;5053751;28;20191;-81
2023/07/15 02:07:29;;;;;;;4.47;2.73;;;;;;;;;;5042276;28;20229;-81
2023/07/15 02:09:55;;;;;;;4.87;2.90;;;;;;;;;;5058823;28;20191;-82
2023/07/15 02:12:21;;;;;;;6.45;2.60;;;;;;;;;;5058102;28;20206;-81
2023/07/15 02:14:47;;;;;;;5.00;2.50;;;;;;;;;;5058880;28;20268;-81
2023/07/15 02:17:13;;;;;;;3.60;2.60;;;;;;;;;;5042019;28;20196;-81
2023/07/15 02:19:39;;;;;;;3.78;2.53;;;;;;;;;;5037097;28;20192;-81
2023/07/15 02:22:05;;;;;;;4.63;2.80;;;;;;;;;;5036040;28;20275;-81
2023/07/15 02:24:31;;;;;;;3.90;2.60;;;;;;;;;;5054090;28;20188;-81
2023/07/15 02:26:58;;;;;;;3.88;2.35;;;;;;;;;;5038694;28;20254;-81
2023/07/15 02:29:24;;;;;;;5.00;2.40;;;;;;;;;;5033907;28;20195;-81
2023/07/15 02:31:50;;;;;;;5.50;2.43;;;;;;;;;;5041214;28;20232;-81
2023/07/15 02:34:16;;;;;;;6.27;2.60;;;;;;;;;;5038414;28;20230;-81
2023/07/15 02:36:42;;;;;;;6.43;2.65;;;;;;;;;;5034737;28;20189;-82
2023/07/15 02:39:08;;;;;;;5.67;2.53;;;;;;;;;;5026366;28;20176;-81
2023/07/15 02:41:34;;;;;;;3.58;2.50;;;;;;;;;;5021829;28;20180;-82
2023/07/15 02:44:00;;;;;;;6.07;2.72;;;;;;;;;;5021609;28;20188;-81
2023/07/15 02:46:26;;;;;;;6.30;2.50;;;;;;;;;;5022431;28;20184;-81
2023/07/15 02:48:53;;;;;;;7.28;2.50;;;;;;;;;;5018080;28;20193;-81
2023/07/15 02:51:19;;;;;;;5.33;2.30;;;;;;;;;;5022018;28;20195;-81
2023/07/15 02:53:47;;;;;;;7.07;2.40;;;;;;;;;;5021193;28;20277;-81
2023/07/15 02:56:13;;;;;;;4.32;2.60;;;;;;;;;;5038566;28;20267;-81
2023/07/15 02:58:40;;;;;;;7.93;2.60;;;;;;;;;;5037259;28;20242;-81
2023/07/15 03:01:08;;;;;;;3.53;2.40;;;;;;;;;;5038216;28;20203;-81
2023/07/15 03:03:37;;;;;;;3.73;2.43;;;;;;;;;;5033530;28;20201;-81
2023/07/15 03:06:03;;;;;;;3.03;2.30;;;;;;;;;;5020906;28;20196;-81
2023/07/15 03:08:29;;;;;;;3.60;2.50;;;;;;;;;;5037284;28;20188;-81
2023/07/15 03:10:55;;;;;;;6.33;2.40;;;;;;;;;;5021992;28;20195;-81
2023/07/15 03:13:21;;;;;;;8.43;2.53;;;;;;;;;;5019801;28;20212;-81
2023/07/15 03:15:47;;;;;;;6.27;2.60;;;;;;;;;;5034717;28;20279;-82
2023/07/15 03:18:14;;;;;;;3.80;2.50;;;;;;;;;;5033958;28;20188;-81
2023/07/15 03:20:40;;;;;;;5.13;2.60;;;;;;;;;;5033191;28;20275;-82
2023/07/15 03:23:06;;;;;;;3.77;2.63;;;;;;;;;;5029913;28;20188;-82
2023/07/15 03:25:32;;;;;;;6.13;2.40;;;;;;;;;;5036377;28;20194;-81
2023/07/15 03:27:58;;;;;;;4.63;2.30;;;;;;;;;;5038300;28;20211;-81
2023/07/15 03:30:24;;;;;;;6.80;2.70;;;;;;;;;;5020417;28;20192;-81
2023/07/15 03:32:56;;;;;;;6.97;2.80;;;;;;;;;;5035336;28;20239;-81
2023/07/15 03:35:22;;;;;;;7.33;2.40;;;;;;;;;;5052372;28;20185;-81
2023/07/15 03:37:48;;;;;;;6.90;2.63;;;;;;;;;;5053706;28;20187;-81
2023/07/15 03:40:14;;;;;;;3.37;2.40;;;;;;;;;;5027880;28;20244;-81
2023/07/15 03:42:43;;;;;;;4.77;2.60;;;;;;;;;;5056657;28;20229;-82
2023/07/15 03:45:10;;;;;;;3.47;2.57;;;;;;;;;;5032084;28;20190;-81
2023/07/15 03:47:36;;;;;;;4.87;2.40;;;;;;;;;;5054212;28;20226;-82
2023/07/15 03:50:03;;;;;;;3.53;2.47;;;;;;;;;;5057042;28;20245;-81
2023/07/15 03:52:29;;;;;;;3.33;2.50;;;;;;;;;;5055249;28;20190;-81
2023/07/15 03:54:56;;;;;;;5.23;2.83;;;;;;;;;;5039995;28;20241;-81
2023/07/15 03:57:22;;;;;;;5.50;2.37;;;;;;;;;;5043348;28;20188;-81
2023/07/15 03:59:48;;;;;;;4.20;2.60;;;;;;;;;;5055774;28;20175;-82
2023/07/15 04:02:14;;;;;;;4.37;2.60;;;;;;;;;;5039334;28;20232;-82
2023/07/15 04:04:41;;;;;;;3.83;2.70;;;;;;;;;;5040062;28;20275;-82
2023/07/15 04:07:09;;;;;;;4.23;2.70;;;;;;;;;;5040445;28;20191;-82
2023/07/15 04:09:35;;;;;;;3.17;2.50;;;;;;;;;;5040399;28;20187;-81
2023/07/15 04:12:01;;;;;;;5.80;2.43;;;;;;;;;;5055560;28;20187;-81
2023/07/15 04:14:27;;;;;;;3.17;2.70;;;;;;;;;;5023187;28;20272;-82
2023/07/15 04:16:53;;;;;;;3.23;2.67;;;;;;;;;;5040407;28;20187;-82
2023/07/15 04:19:19;;;;;;;5.70;2.53;;;;;;;;;;5036594;28;20218;-82
2023/07/15 04:21:45;;;;;;;3.43;2.70;;;;;;;;;;5048765;28;20183;-81
2023/07/15 04:24:11;;;;;;;5.03;2.60;;;;;;;;;;5031315;28;20215;-81
2023/07/15 04:26:37;;;;;;;6.33;2.83;;;;;;;;;;5053559;28;20175;-81
2023/07/15 04:29:03;;;;;;;4.77;2.70;;;;;;;;;;5055400;28;20210;-82
2023/07/15 04:31:29;;;;;;;7.97;2.60;;;;;;;;;;5055502;28;20261;-81
2023/07/15 04:33:56;;;;;;;3.37;2.60;;;;;;;;;;5054722;28;20222;-81
2023/07/15 04:36:22;;;;;;;5.63;3.00;;;;;;;;;;5054049;28;20179;-82
2023/07/15 04:38:48;;;;;;;5.63;2.80;;;;;;;;;;5054969;28;20187;-81
2023/07/15 04:41:15;;;;;;;4.10;2.70;;;;;;;;;;5040008;28;20205;-81
2023/07/15 04:43:41;;;;;;;6.53;2.77;;;;;;;;;;5046888;28;20176;-81
2023/07/15 04:46:07;;;;;;;4.90;2.87;;;;;;;;;;5048852;28;20187;-81
2023/07/15 04:48:34;;;;;;;5.50;2.80;;;;;;;;;;5027922;28;20187;-81
2023/07/15 04:51:00;;;;;;;4.13;2.53;;;;;;;;;;5047034;28;20187;-81
2023/07/15 04:53:26;;;;;;;4.77;2.77;;;;;;;;;;5033720;28;20207;-87
2023/07/15 04:55:53;;;;;;;8.63;2.83;;;;;;;;;;5031423;28;20188;-86
2023/07/15 04:58:19;;;;;;;4.97;2.60;;;;;;;;;;5047609;28;20184;-86
2023/07/15 05:00:46;;;;;;;5.77;2.80;;;;;;;;;;5048758;28;20274;-86
2023/07/15 05:03:12;;;;;;;7.37;2.93;;;;;;;;;;5049214;28;20215;-86
2023/07/15 05:05:41;;;;;;;7.83;2.83;;;;;;;;;;5047713;28;20188;-86
2023/07/15 05:08:18;;;;;;;3.83;2.60;;;;;;;;;;5047586;28;20186;-86
2023/07/15 05:10:44;;;;;;;5.07;2.97;;;;;;;;;;5051210;28;20233;-87
2023/07/15 05:13:10;;;;;;;3.83;2.60;;;;;;;;;;5046212;28;20187;-87
2023/07/15 05:15:37;;;;;;;4.90;2.80;;;;;;;;;;5048785;28;20203;-87
2023/07/15 05:18:04;;;;;;;2.83;2.53;;;;;;;;;;5046509;28;20198;-86
2023/07/15 05:20:31;;;;;;;4.03;2.90;;;;;;;;;;5044847;28;20203;-87
2023/07/15 05:22:57;;;;;;;8.30;3.00;;;;;;;;;;5045472;28;20179;-87
2023/07/15 05:25:24;;;;;;;5.43;2.90;;;;;;;;;;5044696;28;20179;-86
2023/07/15 05:27:52;;;;;;;5.17;3.00;;;;;;;;;;5046619;28;20199;-87
2023/07/15 05:30:19;;;;;;;6.87;3.30;;;;;;;;;;5029001;28;20273;-86
2023/07/15 05:32:45;;;;;;;7.27;3.10;;;;;;;;;;5038024;28;20227;-87
2023/07/15 05:35:11;;;;;;;4.70;3.17;;;;;;;;;;5046249;28;20211;-87
2023/07/15 05:37:38;;;;;;;4.67;3.00;;;;;;;;;;5049758;28;20222;-87
2023/07/15 05:40:09;;;;;;;5.47;2.90;;;;;;;;;;5032636;28;20180;-87
2023/07/15 05:42:45;;;;;;;8.27;3.17;;;;;;;;;;5048935;28;20210;-87
2023/07/15 05:45:11;;;;;;;6.27;3.27;;;;;;;;;;5046923;28;20206;-88
2023/07/15 05:47:41;;;;;;;6.33;3.00;;;;;;;;;;5043295;28;20171;-87
2023/07/15 05:50:08;;;;;;;6.37;3.27;;;;;;;;;;5030069;28;20184;-87
2023/07/15 05:52:34;;;;;;;6.40;3.57;;;;;;;;;;5050730;28;20247;-86
2023/07/15 05:55:01;;;;;;;5.10;3.07;;;;;;;;;;5042861;28;20196;-86
2023/07/15 05:57:27;;;;;;;5.00;2.93;;;;;;;;;;5044682;28;20258;-87
2023/07/15 05:59:53;;;;;;;4.13;3.17;;;;;;;;;;5030188;28;20167;-86
2023/07/15 06:02:19;;;;;;;5.07;3.03;;;;;;;;;;5030729;28;20218;-87
2023/07/15 06:04:45;;;;;;;5.57;3.10;;;;;;;;;;5029734;28;20184;-87
2023/07/15 06:07:11;;;;;;;6.33;3.30;;;;;;;;;;5044174;28;20230;-88
2023/07/15 06:09:37;;;;;;;3.83;3.00;;;;;;;;;;5048490;28;20206;-87
2023/07/15 06:12:03;;;;;;;5.43;3.20;;;;;;;;;;5044915;28;20175;-87
2023/07/15 06:14:29;;;;;;;8.77;3.07;;;;;;;;;;5046306;28;20202;-87
2023/07/15 06:16:55;;;;;;;5.67;3.30;;;;;;;;;;5028047;28;20176;-87
2023/07/15 06:19:21;;;;;;;4.63;3.10;;;;;;;;;;5038809;28;20180;-87
2023/07/15 06:21:48;;;;;;;4.23;2.87;;;;;;;;;;5043970;28;20259;-87
2023/07/15 06:24:14;;;;;;;5.30;3.03;;;;;;;;;;5048064;28;20180;-87
2023/07/15 06:26:40;;;;;;;6.00;3.07;;;;;;;;;;5035793;28;20278;-87
2023/07/15 06:29:06;;;;;;;7.43;3.33;;;;;;;;;;5034375;28;20301;-86
2023/07/15 06:31:32;;;;;;;6.20;3.13;;;;;;;;;;5032074;28;20285;-86
2023/07/15 06:33:58;;;;;;;5.00;3.00;;;;;;;;;;5050522;28;20207;-86
2023/07/15 06:36:24;;;;;;;7.77;3.20;;;;;;;;;;5046192;28;20295;-81
2023/07/15 06:38:50;;;;;;;7.97;3.70;;;;;;;;;;5042518;28;20278;-82
2023/07/15 06:41:16;;;;;;;3.93;3.10;;;;;;;;;;5058577;28;20215;-81
2023/07/15 06:43:42;;;;;;;4.87;3.10;;;;;;;;;;5055819;28;20195;-80
2023/07/15 06:46:08;;;;;;;4.73;3.27;;;;;;;;;;5048193;28;20313;-87
2023/07/15 06:48:34;;;;;;;5.97;2.77;;;;;;;;;;5030075;28;20184;-88
2023/07/15 06:51:00;;;;;;;6.03;3.00;;;;;;;;;;5035196;28;20295;-88
2023/07/15 06:53:27;;;;;;;6.17;3.10;;;;;;;;;;5049266;28;20235;-87
2023/07/15 06:55:53;;;;;;;8.13;2.77;;;;;;;;;;5048568;28;20168;-86
2023/07/15 06:58:19;;;;;;;7.57;3.00;;;;;;;;;;5031916;28;20308;-87
2023/07/15 07:00:45;;;;;;;6.40;2.83;;;;;;;;;;5047710;28;20270;-87
2023/07/15 07:03:12;;;;;;;6.13;2.83;;;;;;;;;;5049436;28;20182;-86
2023/07/15 07:05:38;;;;;;;6.00;2.67;;;;;;;;;;5031142;28;20176;-86
2023/07/15 07:08:04;;;;;;;6.80;2.80;;;;;;;;;;5045149;28;20260;-86
2023/07/15 07:10:30;;;;;;;5.03;2.35;;;;;;;;;;5032666;28;20191;-85
2023/07/15 07:12:56;;;;;;;4.28;2.35;;;;;;;;;;5038045;28;20184;-87
2023/07/15 07:15:22;;;;;;;4.85;2.95;;;;;;;;;;5038343;28;20216;-85
2023/07/15 07:17:50;;;;;;;4.15;2.47;;;;;;;;;;5038626;28;20184;-87
2023/07/15 07:20:16;;;;;;;5.82;2.58;;;;;;;;;;5038390;28;20280;-86
2023/07/15 07:22:42;;;;;;;4.45;2.83;;;;;;;;;;5038328;28;20176;-85
2023/07/15 07:25:09;;;;;;;5.63;2.65;;;;;;;;;;5038381;28;20187;-85
2023/07/15 07:27:35;;;;;;;4.38;2.20;;;;;;;;;;5040672;28;20301;-88
2023/07/15 07:30:01;;;;;;;2.83;2.35;;;;;;;;;;5041039;28;20183;-87
2023/07/15 07:32:27;;;;;;;4.32;2.40;;;;;;;;;;5049510;28;20232;-84
2023/07/15 07:34:53;;;;;;;2.70;2.17;;;;;;;;;;5054046;28;20229;-86
2023/07/15 07:37:20;;;;;;;3.92;2.40;;;;;;;;;;5057924;28;20230;-85
2023/07/15 07:39:46;;;;;;;4.03;2.42;;;;;;;;;;5057731;28;20171;-84
2023/07/15 07:42:13;;;;;;;3.10;2.15;;;;;;;;;;5041482;28;20273;-85
2023/07/15 07:44:41;;;;;;;2.83;2.30;;;;;;;;;;5057839;28;20262;-85
2023/07/15 07:47:07;;;;;;;6.70;2.40;;;;;;;;;;5056886;28;20188;-84
2023/07/15 07:49:33;;;;;;;4.28;2.17;;;;;;;;;;5051893;28;20175;-84
2023/07/15 07:51:59;;;;;;;4.88;2.53;;;;;;;;;;5037869;28;20176;-83
2023/07/15 07:54:25;;;;;;;4.45;2.50;;;;;;;;;;5038212;28;20269;-83
2023/07/15 07:56:52;;;;;;;7.32;2.60;;;;;;;;;;5037745;28;20180;-86
2023/07/15 07:59:18;;;;;;;3.83;2.65;;;;;;;;;;5054013;28;20201;-85
2023/07/15 08:01:44;;;;;;;5.15;2.42;;;;;;;;;;5044032;28;20266;-84
2023/07/15 08:04:10;;;;;;;4.80;2.78;;;;;;;;;;5050774;28;20233;-84
2023/07/15 08:06:36;;;;;;;8.38;2.50;;;;;;;;;;5041275;28;20183;-87
2023/07/15 08:09:02;;;;;;;4.03;2.20;;;;;;;;;;5057704;28;20175;-87
2023/07/15 08:11:28;;;;;;;3.33;2.55;;;;;;;;;;5040931;28;20191;-83
2023/07/15 08:13:54;;;;;;;6.03;2.22;;;;;;;;;;5041571;28;20257;-82
2023/07/15 08:16:34;;;;;;;5.35;2.20;;;;;;;;;;5040544;28;20206;-83
2023/07/15 08:19:01;;;;;;;2.30;2.10;;;;;;;;;;5056736;28;20179;-82
2023/07/15 08:21:28;;;;;;;4.43;2.10;;;;;;;;;;5057541;28;20191;-86
2023/07/15 08:23:54;;;;;;;6.13;2.60;;;;;;;;;;5057668;28;20179;-87
2023/07/15 08:26:21;;;;;;;5.07;2.20;;;;;;;;;;5057373;28;20313;-87
2023/07/15 08:28:47;;;;;;;4.15;2.20;;;;;;;;;;5052100;28;20204;-87
2023/07/15 08:31:13;;;;;;;2.95;2.17;;;;;;;;;;5053607;28;20234;-86
2023/07/15 08:33:42;;;;;;;5.97;2.40;;;;;;;;;;5042292;28;20210;-85
2023/07/15 08:36:08;;;;;;;5.07;2.13;;;;;;;;;;5056726;28;20210;-84
2023/07/15 08:38:34;;;;;;;3.55;2.22;;;;;;;;;;5057152;28;20171;-84
2023/07/15 08:41:06;;;;;;;5.32;2.08;;;;;;;;;;5040660;28;20179;-85
2023/07/15 08:43:32;;;;;;;2.40;2.00;;;;;;;;;;5056642;28;20186;-84
2023/07/15 08:46:22;;;;;;;4.35;1.90;;;;;;;;;;5055931;28;20179;-84
2023/07/15 08:48:50;;;;;;;2.85;1.77;;;;;;;;;;5043637;28;20258;-84
2023/07/15 08:51:21;;;;;;;1.98;1.70;;;;;;;;;;5040120;28;20186;-83
2023/07/15 08:53:48;;;;;;;5.70;1.80;;;;;;;;;;5056697;28;20206;-84
2023/07/15 08:56:16;;;;;;;4.18;1.98;;;;;;;;;;5057295;28;20171;-84
2023/07/15 08:58:46;;;;;;;5.25;1.90;;;;;;;;;;5056734;28;20175;-84
2023/07/15 09:01:13;;;;;;;5.90;1.73;;;;;;;;;;5056807;28;20177;-84
2023/07/15 09:03:44;;;;;;;4.15;1.75;;;;;;;;;;5056444;28;20194;-84
2023/07/15 09:09:20;;;;;;;3.35;1.60;;;;;;;;;;5074907;28;20166;-84
2023/07/15 09:11:52;;;;;;;4.32;1.77;;;;;;;;;;5040294;28;20175;-84
2023/07/15 09:14:24;;;;;;;2.70;1.80;;;;;;;;;;5055490;28;20210;-84
2023/07/15 09:16:59;;;;;;;3.22;1.85;;;;;;;;;;5056087;28;20179;-85
2023/07/15 09:19:32;;;;;;;4.13;1.70;;;;;;;;;;5056173;28;20194;-84
2023/07/15 09:25:22;;;;;;;2.15;1.50;;;;;;;;;;5074410;28;20251;-84
2023/07/15 09:27:51;;;;;;;4.07;2.05;;;;;;;;;;5056172;28;20198;-84
2023/07/15 09:30:21;;;;;;;3.33;1.70;;;;;;;;;;5055912;28;20204;-85
2023/07/15 09:32:47;;;;;;;4.70;1.88;;;;;;;;;;5051953;28;20310;-85
2023/07/15 09:35:26;;;;;;;;;;;;;;;;;;;;;
2023/07/15 09:37:56;;;;;;;3.55;2.00;;;;;;;;;;5053639;28;20183;-84
2023/07/15 09:43:46;;;;;;;3.10;1.55;;;;;;;;;;5048605;28;20236;-85
2023/07/15 09:46:17;;;;;;;4.03;1.77;;;;;;;;;;5056094;28;20203;-85
2023/07/15 09:48:51;;;;;;;4.10;1.70;;;;;;;;;;5056143;28;20175;-86
2023/07/15 09:54:47;;;;;;;5.20;1.80;;;;;;;;;;5074236;28;20194;-84
2023/07/15 09:57:36;;;;;;;4.55;2.13;;;;;;;;;;5056528;28;20175;-84
2023/07/15 10:00:06;;;;;;;4.95;2.22;;;;;;;;;;5060371;28;20181;-84
2023/07/15 10:02:55;;;;;;;3.33;1.90;;;;;;;;;;5041674;28;20190;-84
2023/07/15 10:05:28;;;;;;;5.05;2.03;;;;;;;;;;5039506;28;20238;-84
2023/07/15 10:08:21;;;;;;;3.70;2.03;;;;;;;;;;5053602;28;20183;-84
2023/07/15 10:10:53;;;;;;;4.40;2.00;;;;;;;;;;5059330;28;20184;-86
2023/07/15 10:13:19;;;;;;;3.55;1.95;;;;;;;;;;5059210;28;20179;-84
2023/07/15 10:15:48;;;;;;;3.45;2.00;;;;;;;;;;5059329;28;20242;-84
2023/07/15 10:18:17;;;;;;;4.00;1.80;;;;;;;;;;5039515;28;20227;-84
2023/07/15 10:21:13;;;;;;;;;;;;;;;;;;;;;
2023/07/15 10:30:14;;;;;;;5.93;2.50;;;;;;;;;;5077602;28;20208;-83
2023/07/15 10:33:06;;;;;;;7.35;2.08;;;;;;;;;;5049825;28;20219;-83
2023/07/15 10:35:32;;;;;;;3.90;2.35;;;;;;;;;;5039201;28;20215;-83
2023/07/15 10:38:17;;;;;;;6.78;2.40;;;;;;;;;;5039266;28;20175;-84
2023/07/15 10:40:50;;;;;;;2.75;2.38;;;;;;;;;;5053885;28;20179;-84
2023/07/15 10:43:34;;;;;;;4.47;2.25;;;;;;;;;;5039367;28;20214;-83
2023/07/15 10:46:09;;;;;;;5.88;2.45;;;;;;;;;;5049351;28;20175;-83
2023/07/15 10:48:45;;;;;;;6.72;2.25;;;;;;;;;;5045989;28;20171;-84
2023/07/15 10:51:12;;;;;;;6.65;2.20;;;;;;;;;;5040696;28;20179;-83
2023/07/15 10:53:38;;;;;;;3.38;2.10;;;;;;;;;;5050261;28;20203;-84
2023/07/15 10:56:06;;;;;;;6.38;2.22;;;;;;;;;;5037130;28;20188;-83
2023/07/15 10:58:33;;;;;;;5.80;2.17;;;;;;;;;;5051190;28;20191;-83
2023/07/15 11:01:10;;;;;;;8.57;2.60;;;;;;;;;;5057946;28;20172;-83
2023/07/15 11:03:37;;;;;;;5.22;2.63;;;;;;;;;;5050022;28;20207;-83
2023/07/15 11:06:03;;;;;;;6.38;2.40;;;;;;;;;;5057539;28;20211;-85
2023/07/15 11:08:30;;;;;;;3.45;2.20;;;;;;;;;;5058279;28;20224;-84
2023/07/15 11:10:59;;;;;;;4.47;2.00;;;;;;;;;;5056294;28;20181;-82
2023/07/15 11:13:26;;;;;;;3.90;2.08;;;;;;;;;;5058380;28;20171;-83
2023/07/15 11:15:58;;;;;;;4.35;1.98;;;;;;;;;;5051991;28;20183;-83
2023/07/15 11:18:33;;;;;;;2.80;2.05;;;;;;;;;;5038055;28;20200;-83
2023/07/15 11:21:00;;;;;;;3.35;2.17;;;;;;;;;;5021350;28;20282;-83
2023/07/15 11:23:32;;;;;;;2.28;1.80;;;;;;;;;;5025405;28;20221;-86
2023/07/15 11:26:18;;;;;;;6.00;2.20;;;;;;;;;;5041795;28;20198;-83
2023/07/15 11:29:00;;;;;;;6.47;2.30;;;;;;;;;;5056957;28;20206;-84
2023/07/15 11:32:02;;;;;;;4.45;2.00;;;;;;;;;;5011349;28;20198;-84
2023/07/15 11:34:29;;;;;;;2.13;1.92;;;;;;;;;;5057098;28;20226;-83
2023/07/15 11:40:05;;;;;;;4.45;2.20;;;;;;;;;;5076244;28;20185;-83
2023/07/15 11:45:39;;;;;;;3.25;2.05;;;;;;;;;;5056507;28;20159;-83
2023/07/15 11:51:13;;;;;;;3.20;2.17;;;;;;;;;;5066853;28;20182;-83
2023/07/15 12:02:52;;;;;;;4.30;2.28;;;;;;;;;;5058877;28;20206;-84
2023/07/15 12:05:18;;;;;;;3.03;2.15;;;;;;;;;;5057585;28;20185;-83
2023/07/15 12:07:48;;;;;;;6.00;2.55;;;;;;;;;;5058218;28;20179;-83
2023/07/15 12:10:19;;;;;;;3.40;2.20;;;;;;;;;;5040922;28;20179;-83
2023/07/15 12:15:49;;;;;;;6.65;2.22;;;;;;;;;;5075215;28;20213;-82
2023/07/15 12:21:20;;;;;;;2.83;1.98;;;;;;;;;;5074826;28;20154;-83
2023/07/15 12:23:46;;;;;;;6.97;2.40;;;;;;;;;;5057183;28;20215;-83
2023/07/15 12:26:30;;;;;;;5.25;2.30;;;;;;;;;;5057085;28;20179;-83
2023/07/15 12:29:05;;;;;;;4.43;2.05;;;;;;;;;;5057097;28;20199;-84
2023/07/15 12:31:31;;;;;;;5.82;2.28;;;;;;;;;;5074268;28;20183;-83
2023/07/15 12:33:57;;;;;;;3.13;2.40;;;;;;;;;;5040587;28;20225;-87
2023/07/15 12:36:30;;;;;;;5.20;2.13;;;;;;;;;;5056502;28;20252;-83
2023/07/15 12:39:02;;;;;;;3.30;1.90;;;;;;;;;;5056574;28;20180;-84
2023/07/15 12:41:32;;;;;;;2.10;1.98;;;;;;;;;;5040171;28;20249;-83
2023/07/15 12:43:58;;;;;;;2.45;2.10;;;;;;;;;;5042839;28;20179;-85
2023/07/15 12:46:24;;;;;;;3.85;2.13;;;;;;;;;;5037007;28;20191;-84
2023/07/15 12:48:53;;;;;;;2.92;2.10;;;;;;;;;;5020551;28;20207;-83
2023/07/15 12:51:19;;;;;;;4.25;2.17;;;;;;;;;;5056780;28;20266;-84
2023/07/15 12:53:45;;;;;;;3.70;2.17;;;;;;;;;;5040221;28;20207;-83
2023/07/15 12:56:13;;;;;;;3.78;2.10;;;;;;;;;;5039971;28;20229;-84
2023/07/15 12:58:40;;;;;;;3.67;2.25;;;;;;;;;;5039376;28;20268;-84
2023/07/15 13:01:06;;;;;;;4.35;2.05;;;;;;;;;;5041060;28;20182;-84
2023/07/15 13:03:33;;;;;;;2.85;2.10;;;;;;;;;;5036853;28;20186;-83
2023/07/15 13:05:59;;;;;;;3.72;2.50;;;;;;;;;;5036028;28;20183;-84
2023/07/15 13:08:25;;;;;;;4.75;2.17;;;;;;;;;;5040530;28;20175;-83
2023/07/15 13:10:52;;;;;;;6.15;2.25;;;;;;;;;;5040072;28;20183;-83
2023/07/15 13:13:18;;;;;;;3.42;2.30;;;;;;;;;;5056731;28;20167;-84
2023/07/15 13:15:44;;;;;;;9.05;2.65;;;;;;;;;;5036976;28;20217;-80
2023/07/15 13:18:10;;;;;;;2.53;2.20;;;;;;;;;;5036390;28;20180;-83
2023/07/15 13:20:36;;;;;;;5.22;2.33;;;;;;;;;;5036546;28;20176;-84
2023/07/15 13:23:02;;;;;;;4.35;2.70;;;;;;;;;;5020327;28;20180;-84
2023/07/15 13:25:28;;;;;;;3.33;2.30;;;;;;;;;;5031806;28;20191;-83
2023/07/15 13:27:55;;;;;;;3.17;2.70;;;;;;;;;;5055627;28;20195;-84
2023/07/15 13:30:21;;;;;;;2.80;2.45;;;;;;;;;;5036198;28;20225;-84
2023/07/15 13:32:47;;;;;;;5.55;2.28;;;;;;;;;;5056339;28;20187;-84
2023/07/15 13:35:13;;;;;;;5.13;2.55;;;;;;;;;;5036422;28;20239;-80
2023/07/15 13:37:39;;;;;;;3.28;2.65;;;;;;;;;;5036407;28;20176;-83
2023/07/15 13:40:05;;;;;;;6.20;2.97;;;;;;;;;;5036254;28;20212;-83
2023/07/15 13:42:32;;;;;;;5.53;2.60;;;;;;;;;;5052333;28;20179;-83
2023/07/15 13:44:58;;;;;;;3.92;2.30;;;;;;;;;;5052127;28;20218;-83
2023/07/15 13:47:24;;;;;;;4.43;2.75;;;;;;;;;;5053129;28;20176;-84
2023/07/15 13:49:50;;;;;;;3.88;2.45;;;;;;;;;;5053138;28;20175;-84
2023/07/15 13:52:16;;;;;;;3.60;2.45;;;;;;;;;;5051806;28;20187;-84
2023/07/15 13:54:42;;;;;;;4.30;2.40;;;;;;;;;;5052857;28;20302;-84
2023/07/15 13:57:08;;;;;;;4.20;2.55;;;;;;;;;;5036104;28;20180;-84
2023/07/15 13:59:34;;;;;;;2.85;2.50;;;;;;;;;;5040439;28;20183;-84
2023/07/15 14:02:00;;;;;;;3.75;2.30;;;;;;;;;;5016302;28;20271;-83
2023/07/15 14:04:26;;;;;;;4.50;2.40;;;;;;;;;;5032863;28;20184;-84
2023/07/15 14:06:52;;;;;;;4.20;2.58;;;;;;;;;;5045031;28;20183;-84
2023/07/15 14:09:18;;;;;;;3.60;2.60;;;;;;;;;;5036140;28;20183;-84
2023/07/15 14:11:44;;;;;;;3.85;2.50;;;;;;;;;;5051705;28;20179;-84
2023/07/15 14:14:11;;;;;;;3.97;2.50;;;;;;;;;;5035877;28;20216;-84
2023/07/15 14:16:37;;;;;;;5.03;2.20;;;;;;;;;;5052901;28;20226;-84
2023/07/15 14:19:03;;;;;;;3.45;2.33;;;;;;;;;;5036373;28;20180;-84
2023/07/15 14:21:29;;;;;;;5.40;2.33;;;;;;;;;;5029769;28;20185;-84
2023/07/15 14:23:56;;;;;;;5.57;2.75;;;;;;;;;;5015807;28;20188;-83
2023/07/15 14:26:22;;;;;;;4.20;2.45;;;;;;;;;;5032514;28;20181;-84
2023/07/15 14:28:48;;;;;;;4.15;2.28;;;;;;;;;;5032773;28;20258;-84
2023/07/15 14:31:14;;;;;;;4.20;2.58;;;;;;;;;;5032387;28;20184;-84
2023/07/15 14:33:40;;;;;;;4.28;2.38;;;;;;;;;;5031146;28;20197;-80
2023/07/15 14:36:09;;;;;;;5.78;2.75;;;;;;;;;;5032697;28;20297;-81
2023/07/15 14:38:35;;;;;;;4.88;2.65;;;;;;;;;;5036369;28;20195;-81
2023/07/15 14:41:01;;;;;;;3.50;2.50;;;;;;;;;;5035886;28;20180;-80
2023/07/15 14:43:27;;;;;;;7.25;2.40;;;;;;;;;;5036126;28;20209;-80
2023/07/15 14:45:53;;;;;;;4.32;2.40;;;;;;;;;;5034802;28;20208;-80
2023/07/15 14:48:19;;;;;;;2.97;2.63;;;;;;;;;;5022019;28;20184;-80
2023/07/15 14:50:45;;;;;;;4.72;4.32;;;;;;;;;;5055691;28;20168;-80
2023/07/15 14:53:11;;;;;;;4.90;4.47;;;;;;;;;;5038350;28;20187;-81
2023/07/15 14:55:37;;;;;;;4.32;3.03;;;;;;;;;;5039042;28;20223;-81
2023/07/15 14:58:03;;;;;;;7.03;3.03;;;;;;;;;;5039345;28;20175;-80
2023/07/15 15:00:30;;;;;;;5.53;4.15;;;;;;;;;;5056177;28;20178;-80
2023/07/15 15:02:56;;;;;;;5.20;3.72;;;;;;;;;;5055301;28;20211;-80
2023/07/15 15:05:22;;;;;;;7.20;3.30;;;;;;;;;;5038789;28;20180;-80
2023/07/15 15:07:48;;;;;;;4.40;2.63;;;;;;;;;;5036902;28;20199;-81
2023/07/15 15:10:14;;;;;;;4.80;2.88;;;;;;;;;;5039179;28;20318;-80
2023/07/15 15:12:40;;;;;;;4.80;3.15;;;;;;;;;;5037900;28;20234;-81
2023/07/15 15:15:06;;;;;;;5.63;3.22;;;;;;;;;;5038558;28;20215;-80
2023/07/15 15:17:33;;;;;;;5.28;2.90;;;;;;;;;;5043760;28;20178;-81
2023/07/15 15:19:59;;;;;;;6.55;3.17;;;;;;;;;;5018990;28;20181;-81
2023/07/15 15:22:26;;;;;;;6.13;3.08;;;;;;;;;;5048498;28;20251;-80
2023/07/15 15:24:52;;;;;;;8.48;3.38;;;;;;;;;;5049955;28;20187;-80
2023/07/15 15:27:21;;;;;;;16.48;3.40;;;;;;;;;;5031074;28;20206;-81
2023/07/15 15:29:47;;;;;;;14.70;3.45;;;;;;;;;;5038576;28;20180;-80
2023/07/15 15:32:13;;;;;;;7.90;3.22;;;;;;;;;;5055220;28;20183;-80
2023/07/15 15:34:39;;;;;;;9.10;3.20;;;;;;;;;;5037878;28;20224;-81